createdAt,value
2018-04-23T00:02:23.898Z,14.50
2018-04-23T00:04:51.379Z,14.50
2018-04-23T00:07:18.856Z,14.50
2018-04-23T00:09:46.330Z,14.40
2018-04-23T00:12:13.912Z,14.50
2018-04-23T00:14:41.390Z,14.50
2018-04-23T00:17:08.868Z,14.50
2018-04-23T00:19:36.390Z,14.50
2018-04-23T00:22:03.879Z,14.50
2018-04-23T00:24:31.354Z,14.50
2018-04-23T00:26:59.608Z,14.50
2018-04-23T00:29:27.088Z,14.50
2018-04-23T00:31:55.345Z,14.40
2018-04-23T00:34:23.602Z,14.40
2018-04-23T00:36:51.069Z,14.40
2018-04-23T00:39:18.534Z,14.30
2018-04-23T00:41:46.010Z,14.30
2018-04-23T00:44:13.504Z,14.30
2018-04-23T00:46:40.986Z,14.20
2018-04-23T00:49:08.470Z,14.20
2018-04-23T00:51:35.936Z,14.20
2018-04-23T00:54:04.180Z,14.10
2018-04-23T00:56:32.452Z,14.10
2018-04-23T00:58:59.936Z,14.10
2018-04-23T01:01:28.188Z,14.10
2018-04-23T01:03:55.674Z,14.10
2018-04-23T01:06:23.138Z,14.10
2018-04-23T01:08:50.634Z,14.10
2018-04-23T01:11:18.105Z,14.10
2018-04-23T01:13:45.993Z,14.10
2018-04-23T01:16:13.461Z,14.20
2018-04-23T01:18:40.955Z,14.20
2018-04-23T01:21:09.227Z,14.20
2018-04-23T01:23:37.480Z,14.20
2018-04-23T01:26:04.953Z,14.20
2018-04-23T01:28:32.416Z,14.20
2018-04-23T01:31:00.667Z,14.10
2018-04-23T01:33:28.125Z,14.10
2018-04-23T01:35:55.640Z,14.10
2018-04-23T01:38:23.120Z,14.10
2018-04-23T01:40:50.615Z,14.20
2018-04-23T01:43:18.125Z,14.20
2018-04-23T01:45:45.642Z,14.20
2018-04-23T01:48:13.131Z,14.20
2018-04-23T01:50:40.617Z,14.30
2018-04-23T01:53:08.103Z,14.30
2018-04-23T01:55:35.580Z,14.30
2018-04-23T01:58:03.065Z,14.30
2018-04-23T02:00:31.457Z,14.40
2018-04-23T02:02:58.940Z,14.40
2018-04-23T02:05:26.414Z,14.40
2018-04-23T02:07:53.889Z,14.40
2018-04-23T02:10:21.361Z,14.40
2018-04-23T02:12:48.840Z,14.40
2018-04-23T02:15:16.397Z,14.50
2018-04-23T02:17:43.916Z,14.50
2018-04-23T02:20:11.389Z,14.50
2018-04-23T02:22:38.875Z,14.60
2018-04-23T02:25:07.106Z,14.60
2018-04-23T02:27:34.584Z,14.60
2018-04-23T02:30:02.060Z,14.70
2018-04-23T02:32:30.298Z,14.60
2018-04-23T02:34:57.779Z,14.60
2018-04-23T02:37:25.288Z,14.50
2018-04-23T02:39:52.761Z,14.40
2018-04-23T02:42:20.270Z,14.40
2018-04-23T02:44:48.506Z,14.20
2018-04-23T02:47:16.010Z,14.20
2018-04-23T02:49:44.244Z,14.00
2018-04-23T02:52:11.751Z,14.00
2018-04-23T02:54:40.007Z,13.90
2018-04-23T02:57:07.519Z,13.90
2018-04-23T02:59:35.202Z,13.80
2018-04-23T03:02:03.546Z,13.50
2018-04-23T03:04:31.048Z,13.50
2018-04-23T03:06:58.520Z,13.50
2018-04-23T03:09:26.024Z,13.50
2018-04-23T03:11:53.473Z,13.40
2018-04-23T03:14:20.953Z,13.30
2018-04-23T03:16:48.479Z,13.40
2018-04-23T03:19:16.704Z,13.30
2018-04-23T03:21:44.178Z,13.30
2018-04-23T03:24:12.775Z,13.30
2018-04-23T03:26:40.281Z,13.30
2018-04-23T03:29:07.757Z,13.30
2018-04-23T03:31:35.224Z,13.20
2018-04-23T03:34:02.699Z,13.20
2018-04-23T03:36:30.178Z,13.10
2018-04-23T03:38:57.664Z,13.10
2018-04-23T03:41:25.164Z,13.10
2018-04-23T03:43:52.641Z,13.00
2018-04-23T03:46:20.148Z,13.00
2018-04-23T03:48:47.654Z,12.90
2018-04-23T03:51:15.130Z,12.90
2018-04-23T03:53:43.392Z,12.80
2018-04-23T03:56:10.856Z,12.80
2018-04-23T03:58:38.325Z,12.80
2018-04-23T04:01:05.821Z,12.70
2018-04-23T04:03:33.310Z,12.60
2018-04-23T04:06:00.794Z,12.60
2018-04-23T04:08:28.267Z,12.50
2018-04-23T04:10:56.551Z,12.40
2018-04-23T04:13:36.758Z,12.40
2018-04-23T04:16:16.216Z,12.40
2018-04-23T04:18:45.628Z,12.40
2018-04-23T04:21:13.414Z,12.40
2018-04-23T04:23:41.658Z,12.30
2018-04-23T04:26:10.245Z,12.30
2018-04-23T04:28:37.772Z,12.30
2018-04-23T04:31:05.265Z,12.30
2018-04-23T04:33:32.780Z,12.40
2018-04-23T04:36:00.613Z,12.40
2018-04-23T04:38:28.066Z,12.50
2018-04-23T04:40:55.543Z,12.50
2018-04-23T04:43:23.845Z,12.40
2018-04-23T04:45:51.321Z,12.40
2018-04-23T04:48:18.837Z,12.40
2018-04-23T04:50:47.056Z,12.50
2018-04-23T04:53:14.547Z,12.50
2018-04-23T04:55:42.020Z,12.50
2018-04-23T04:58:09.495Z,12.60
2018-04-23T05:00:38.404Z,12.60
2018-04-23T05:03:05.881Z,12.60
2018-04-23T05:05:33.362Z,12.70
2018-04-23T05:08:00.849Z,12.70
2018-04-23T05:10:28.339Z,12.70
2018-04-23T05:12:55.823Z,12.80
2018-04-23T05:15:23.300Z,12.80
2018-04-23T05:17:50.767Z,12.90
2018-04-23T05:20:18.293Z,12.90
2018-04-23T05:22:45.769Z,13.00
2018-04-23T05:25:13.245Z,13.10
2018-04-23T05:27:40.763Z,13.10
2018-04-23T05:30:08.377Z,13.10
2018-04-23T05:32:35.845Z,13.20
2018-04-23T05:35:04.096Z,13.40
2018-04-23T05:37:31.610Z,13.30
2018-04-23T05:39:59.078Z,13.40
2018-04-23T05:42:26.537Z,13.40
2018-04-23T05:44:54.015Z,13.50
2018-04-23T05:47:21.473Z,13.50
2018-04-23T05:49:49.132Z,13.50
2018-04-23T05:52:16.587Z,13.60
2018-04-23T05:54:44.092Z,13.60
2018-04-23T05:57:11.635Z,13.60
2018-04-23T05:59:39.176Z,13.70
2018-04-23T06:02:06.743Z,13.70
2018-04-23T06:04:34.225Z,13.80
2018-04-23T06:07:01.707Z,13.80
2018-04-23T06:09:29.958Z,13.90
2018-04-23T06:11:57.424Z,13.90
2018-04-23T06:14:25.758Z,13.90
2018-04-23T06:16:53.176Z,13.90
2018-04-23T06:19:20.653Z,14.00
2018-04-23T06:21:48.161Z,14.10
2018-04-23T06:24:16.024Z,14.10
2018-04-23T06:26:43.508Z,14.10
2018-04-23T06:29:10.984Z,14.20
2018-04-23T06:31:39.229Z,14.40
2018-04-23T06:34:06.722Z,14.30
2018-04-23T06:36:34.965Z,14.50
2018-04-23T06:39:02.438Z,14.50
2018-04-23T06:41:29.948Z,14.60
2018-04-23T06:43:57.450Z,14.50
2018-04-23T06:46:25.287Z,14.50
2018-04-23T06:48:53.486Z,14.40
2018-04-23T06:51:20.961Z,14.40
2018-04-23T06:53:49.218Z,14.50
2018-04-23T06:56:16.778Z,14.40
2018-04-23T06:58:44.260Z,14.60
2018-04-23T07:01:12.527Z,15.00
2018-04-23T07:03:40.027Z,15.00
2018-04-23T07:06:07.516Z,15.40
2018-04-23T07:08:35.029Z,15.60
2018-04-23T07:11:03.330Z,15.70
2018-04-23T07:13:30.800Z,15.70
2018-04-23T07:15:58.278Z,15.90
2018-04-23T07:18:25.773Z,16.50
2018-04-23T07:20:54.452Z,17.50
2018-04-23T07:23:22.617Z,17.50
2018-04-23T07:25:50.105Z,18.30
2018-04-23T07:28:18.354Z,19.40
2018-04-23T07:30:45.858Z,19.40
2018-04-23T07:33:13.349Z,19.60
2018-04-23T07:35:40.840Z,19.90
2018-04-23T07:38:08.311Z,19.70
2018-04-23T07:40:36.583Z,19.80
2018-04-23T07:43:04.879Z,19.50
2018-04-23T07:45:33.124Z,19.50
2018-04-23T07:48:00.637Z,19.50
2018-04-23T07:50:28.111Z,19.10
2018-04-23T07:52:55.629Z,18.90
2018-04-23T07:55:23.905Z,18.50
2018-04-23T07:57:52.168Z,17.80
2018-04-23T08:00:20.404Z,17.90
2018-04-23T08:02:47.885Z,17.90
2018-04-23T08:05:15.369Z,17.90
2018-04-23T08:07:43.607Z,18.00
2018-04-23T08:10:11.853Z,18.10
2018-04-23T08:12:39.315Z,18.10
2018-04-23T08:15:06.811Z,18.00
2018-04-23T08:17:34.297Z,17.70
2018-04-23T08:20:02.550Z,17.30
2018-04-23T08:22:30.029Z,17.30
2018-04-23T08:24:58.265Z,17.40
2018-04-23T08:27:25.789Z,17.40
2018-04-23T08:29:53.248Z,17.30
2018-04-23T08:32:20.760Z,17.50
2018-04-23T08:34:49.753Z,17.80
2018-04-23T08:37:17.257Z,17.80
2018-04-23T08:39:44.775Z,17.50
2018-04-23T08:42:12.277Z,18.30
2018-04-23T08:44:40.520Z,20.50
2018-04-23T08:47:08.036Z,20.50
2018-04-23T08:49:39.518Z,21.80
2018-04-23T08:52:06.995Z,22.70
2018-04-23T08:54:35.294Z,22.80
2018-04-23T08:57:03.521Z,24.10
2018-04-23T08:59:31.005Z,24.00
2018-04-23T09:01:58.485Z,23.70
2018-04-23T09:04:25.990Z,24.60
2018-04-23T09:06:54.231Z,26.30
2018-04-23T09:09:21.752Z,26.10
2018-04-23T09:11:49.329Z,25.90
2018-04-23T09:14:16.827Z,25.50
2018-04-23T09:16:44.297Z,24.40
2018-04-23T09:19:11.819Z,24.10
2018-04-23T09:21:40.214Z,25.70
2018-04-23T09:24:07.695Z,25.70
2018-04-23T09:26:35.193Z,26.70
2018-04-23T09:29:02.735Z,27.10
2018-04-23T09:31:30.212Z,27.00
2018-04-23T09:33:57.933Z,27.50
2018-04-23T09:36:25.406Z,27.90
2018-04-23T09:38:52.930Z,26.30
2018-04-23T09:41:20.409Z,25.80
2018-04-23T09:43:47.888Z,24.20
2018-04-23T09:46:15.387Z,22.90
2018-04-23T09:48:42.957Z,22.50
2018-04-23T09:51:10.450Z,21.80
2018-04-23T09:53:38.957Z,22.10
2018-04-23T09:56:06.467Z,23.10
2018-04-23T09:58:34.031Z,24.00
2018-04-23T10:01:01.516Z,25.20
2018-04-23T10:03:34.723Z,27.20
2018-04-23T10:06:02.308Z,27.60
2018-04-23T10:08:29.834Z,27.70
2018-04-23T10:10:57.310Z,27.50
2018-04-23T10:13:24.853Z,27.10
2018-04-23T10:15:52.776Z,27.20
2018-04-23T10:18:21.049Z,26.10
2018-04-23T10:20:48.531Z,26.00
2018-04-23T10:23:16.021Z,25.80
2018-04-23T10:25:43.498Z,23.90
2018-04-23T10:28:10.981Z,22.70
2018-04-23T10:30:39.269Z,22.80
2018-04-23T10:33:07.513Z,22.30
2018-04-23T10:35:34.994Z,22.30
2018-04-23T10:38:03.255Z,24.90
2018-04-23T10:40:31.532Z,25.50
2018-04-23T10:42:59.016Z,25.50
2018-04-23T10:45:27.286Z,27.00
2018-04-23T10:47:54.746Z,27.00
2018-04-23T10:50:23.027Z,25.90
2018-04-23T10:52:51.276Z,24.90
2018-04-23T10:55:18.852Z,24.80
2018-04-23T10:57:46.327Z,23.90
2018-04-23T11:00:14.596Z,23.30
2018-04-23T11:02:42.873Z,23.30
2018-04-23T11:05:11.131Z,23.80
2018-04-23T11:07:38.651Z,23.80
2018-04-23T11:10:06.145Z,23.80
2018-04-23T11:12:33.621Z,23.70
2018-04-23T11:15:01.098Z,24.80
2018-04-23T11:17:29.360Z,22.90
2018-04-23T11:19:56.849Z,22.80
2018-04-23T11:22:24.314Z,21.60
2018-04-23T11:24:51.832Z,21.70
2018-04-23T11:27:19.307Z,22.10
2018-04-23T11:29:47.592Z,22.50
2018-04-23T11:32:15.805Z,23.10
2018-04-23T11:34:43.367Z,23.00
2018-04-23T11:37:10.866Z,22.90
2018-04-23T11:39:38.360Z,22.30
2018-04-23T11:42:05.844Z,22.60
2018-04-23T11:44:33.381Z,22.00
2018-04-23T11:47:00.875Z,21.30
2018-04-23T11:49:29.145Z,20.90
2018-04-23T11:51:57.918Z,21.30
2018-04-23T11:54:25.398Z,21.30
2018-04-23T11:56:52.880Z,22.10
2018-04-23T11:59:20.441Z,21.70
2018-04-23T12:01:48.836Z,21.60
2018-04-23T12:04:16.579Z,20.90
2018-04-23T12:06:44.515Z,20.60
2018-04-23T12:09:12.040Z,21.40
2018-04-23T12:11:40.293Z,22.30
2018-04-23T12:14:07.801Z,22.30
2018-04-23T12:16:35.583Z,22.10
2018-04-23T12:19:03.084Z,21.70
2018-04-23T12:21:30.589Z,22.00
2018-04-23T12:23:58.058Z,22.30
2018-04-23T12:26:25.560Z,22.20
2018-04-23T12:28:53.225Z,22.70
2018-04-23T12:31:20.860Z,22.80
2018-04-23T12:33:48.323Z,23.30
2018-04-23T12:36:16.929Z,22.40
2018-04-23T12:38:44.451Z,22.70
2018-04-23T12:41:12.950Z,21.50
2018-04-23T12:43:41.241Z,21.40
2018-04-23T12:46:08.745Z,21.40
2018-04-23T12:48:36.238Z,21.60
2018-04-23T12:51:03.739Z,21.00
2018-04-23T12:53:31.974Z,21.40
2018-04-23T12:55:59.430Z,21.30
2018-04-23T12:58:26.900Z,21.30
2018-04-23T13:00:54.499Z,21.50
2018-04-23T13:03:23.619Z,21.30
2018-04-23T13:05:52.042Z,21.20
2018-04-23T13:08:19.537Z,21.00
2018-04-23T13:10:47.792Z,20.80
2018-04-23T13:13:15.250Z,20.80
2018-04-23T13:15:42.726Z,20.90
2018-04-23T13:18:10.981Z,20.90
2018-04-23T13:20:38.455Z,20.90
2018-04-23T13:23:05.998Z,21.20
2018-04-23T13:25:33.489Z,21.10
2018-04-23T13:28:00.976Z,20.80
2018-04-23T13:30:28.460Z,21.00
2018-04-23T13:32:55.913Z,20.70
2018-04-23T13:35:23.380Z,20.70
2018-04-23T13:37:50.950Z,20.60
2018-04-23T13:40:18.493Z,20.50
2018-04-23T13:42:47.351Z,20.60
2018-04-23T13:45:14.834Z,20.70
2018-04-23T13:47:42.362Z,20.80
2018-04-23T13:50:10.634Z,20.50
2018-04-23T13:52:38.093Z,20.40
2018-04-23T13:55:06.482Z,20.30
2018-04-23T13:57:33.980Z,20.30
2018-04-23T14:00:01.471Z,20.40
2018-04-23T14:02:28.995Z,20.10
2018-04-23T14:04:58.689Z,20.00
2018-04-23T14:07:27.017Z,20.00
2018-04-23T14:09:54.491Z,20.10
2018-04-23T14:12:21.984Z,20.20
2018-04-23T14:14:50.059Z,20.00
2018-04-23T14:17:17.688Z,19.90
2018-04-23T14:19:46.146Z,19.90
2018-04-23T14:22:13.671Z,19.90
2018-04-23T14:24:41.144Z,19.90
2018-04-23T14:27:08.747Z,19.90
2018-04-23T14:29:36.980Z,19.70
2018-04-23T14:32:04.466Z,19.70
2018-04-23T14:34:31.965Z,20.20
2018-04-23T14:36:59.440Z,20.40
2018-04-23T14:39:26.966Z,20.20
2018-04-23T14:41:55.218Z,20.10
2018-04-23T14:44:22.788Z,20.10
2018-04-23T14:46:50.261Z,19.90
2018-04-23T14:49:18.740Z,19.90
2018-04-23T14:51:46.295Z,19.90
2018-04-23T14:54:13.786Z,20.00
2018-04-23T14:56:41.261Z,20.00
2018-04-23T14:59:08.764Z,19.80
2018-04-23T15:01:36.257Z,19.90
2018-04-23T15:04:03.759Z,20.10
2018-04-23T15:06:31.230Z,20.20
2018-04-23T15:08:58.731Z,19.90
2018-04-23T15:11:26.273Z,20.00
2018-04-23T15:13:53.789Z,20.10
2018-04-23T15:16:21.274Z,20.50
2018-04-23T15:18:48.753Z,20.70
2018-04-23T15:21:17.043Z,21.30
2018-04-23T15:23:44.537Z,21.30
2018-04-23T15:26:12.006Z,21.60
2018-04-23T15:28:39.489Z,21.50
2018-04-23T15:31:07.093Z,20.70
2018-04-23T15:33:34.570Z,20.80
2018-04-23T15:36:02.833Z,20.60
2018-04-23T15:38:30.323Z,20.60
2018-04-23T15:40:57.792Z,20.60
2018-04-23T15:43:25.277Z,20.70
2018-04-23T15:45:53.997Z,19.90
2018-04-23T15:48:21.527Z,19.90
2018-04-23T15:50:49.776Z,19.40
2018-04-23T15:53:17.809Z,19.40
2018-04-23T15:55:45.283Z,19.30
2018-04-23T15:58:12.757Z,19.30
2018-04-23T16:00:40.228Z,19.20
2018-04-23T16:03:07.724Z,19.30
2018-04-23T16:05:35.222Z,19.30
2018-04-23T16:08:02.743Z,19.10
2018-04-23T16:10:30.321Z,19.20
2018-04-23T16:12:58.054Z,19.00
2018-04-23T16:15:26.281Z,18.80
2018-04-23T16:17:53.818Z,18.80
2018-04-23T16:20:26.138Z,18.80
2018-04-23T16:22:53.632Z,18.80
2018-04-23T16:25:21.144Z,18.90
2018-04-23T16:27:50.087Z,18.80
2018-04-23T16:30:17.609Z,18.60
2018-04-23T16:32:45.293Z,18.60
2018-04-23T16:35:13.540Z,18.40
2018-04-23T16:37:41.284Z,18.30
2018-04-23T16:40:08.757Z,18.20
2018-04-23T16:42:36.253Z,18.20
2018-04-23T16:45:04.549Z,18.20
2018-04-23T16:47:32.017Z,18.20
2018-04-23T16:49:59.550Z,18.20
2018-04-23T16:52:27.782Z,18.00
2018-04-23T16:54:55.278Z,17.90
2018-04-23T16:57:22.808Z,17.90
2018-04-23T16:59:50.290Z,17.70
2018-04-23T17:02:17.767Z,17.60
2018-04-23T17:04:46.017Z,17.50
2018-04-23T17:07:13.485Z,17.40
2018-04-23T17:09:41.097Z,17.40
2018-04-23T17:12:08.580Z,17.30
2018-04-23T17:14:36.052Z,17.20
2018-04-23T17:17:03.593Z,17.10
2018-04-23T17:19:31.134Z,17.10
2018-04-23T17:21:58.628Z,17.00
2018-04-23T17:24:26.094Z,16.90
2018-04-23T17:26:53.569Z,16.80
2018-04-23T17:29:21.808Z,16.60
2018-04-23T17:31:49.302Z,16.50
2018-04-23T17:34:18.893Z,16.50
2018-04-23T17:36:46.563Z,16.50
2018-04-23T17:39:14.382Z,16.40
2018-04-23T17:41:41.924Z,16.40
2018-04-23T17:44:09.373Z,16.30
2018-04-23T17:46:39.170Z,16.30
2018-04-23T17:49:07.413Z,16.30
2018-04-23T17:51:34.888Z,16.30
2018-04-23T17:54:02.836Z,16.20
2018-04-23T17:56:30.330Z,16.20
2018-04-23T17:58:57.798Z,16.10
2018-04-23T18:01:25.312Z,16.00
2018-04-23T18:03:52.796Z,16.00
2018-04-23T18:06:20.489Z,15.80
2018-04-23T18:08:48.022Z,15.80
2018-04-23T18:11:15.492Z,15.70
2018-04-23T18:13:42.990Z,15.60
2018-04-23T18:16:10.489Z,15.50
2018-04-23T18:18:37.998Z,15.40
2018-04-23T18:21:05.485Z,15.40
2018-04-23T18:23:33.002Z,15.30
2018-04-23T18:26:01.867Z,15.20
2018-04-23T18:28:29.333Z,15.10
2018-04-23T18:30:57.378Z,15.10
2018-04-23T18:33:25.035Z,15.00
2018-04-23T18:35:52.559Z,14.90
2018-04-23T18:38:20.820Z,14.90
2018-04-23T18:40:49.086Z,14.80
2018-04-23T18:43:16.564Z,14.80
2018-04-23T18:45:44.105Z,14.70
2018-04-23T18:48:11.633Z,14.70
2018-04-23T18:50:39.176Z,14.60
2018-04-23T18:53:07.383Z,14.50
2018-04-23T18:55:34.918Z,14.40
2018-04-23T18:58:02.392Z,14.30
2018-04-23T19:00:29.878Z,14.30
2018-04-23T19:02:57.339Z,14.20
2018-04-23T19:05:24.852Z,14.20
2018-04-23T19:07:52.338Z,14.20
2018-04-23T19:10:19.879Z,14.10
2018-04-23T19:12:47.346Z,14.00
2018-04-23T19:15:14.867Z,14.00
2018-04-23T19:17:42.381Z,13.90
2018-04-23T19:20:09.800Z,13.80
2018-04-23T19:22:37.307Z,13.70
2018-04-23T19:25:04.878Z,13.60
2018-04-23T19:27:33.144Z,13.60
2018-04-23T19:30:02.426Z,13.60
2018-04-23T19:32:29.909Z,13.60
2018-04-23T19:34:58.737Z,13.60
2018-04-23T19:37:26.633Z,13.70
2018-04-23T19:39:54.143Z,13.70
2018-04-23T19:42:22.474Z,13.60
2018-04-23T19:44:50.900Z,13.50
2018-04-23T19:47:19.197Z,13.50
2018-04-23T19:49:47.113Z,13.50
2018-04-23T19:52:14.609Z,13.40
2018-04-23T19:54:43.443Z,13.20
2018-04-23T19:57:11.401Z,13.20
2018-04-23T19:59:38.910Z,13.20
2018-04-23T20:02:06.451Z,13.00
2018-04-23T20:04:33.918Z,13.00
2018-04-23T20:07:01.448Z,13.00
2018-04-23T20:09:28.922Z,12.90
2018-04-23T20:11:56.407Z,12.90
2018-04-23T20:14:23.890Z,12.80
2018-04-23T20:16:52.174Z,12.80
2018-04-23T20:19:19.641Z,12.80
2018-04-23T20:21:47.111Z,12.80
2018-04-23T20:24:14.784Z,12.70
2018-04-23T20:26:42.299Z,12.70
2018-04-23T20:29:09.856Z,12.60
2018-04-23T20:31:38.137Z,12.50
2018-04-23T20:34:06.824Z,12.40
2018-04-23T20:36:35.541Z,12.40
2018-04-23T20:39:03.127Z,12.30
2018-04-23T20:41:36.103Z,12.30
2018-04-23T20:44:04.029Z,12.30
2018-04-23T20:46:33.132Z,12.30
2018-04-23T20:49:01.144Z,12.30
2018-04-23T20:51:28.641Z,12.30
2018-04-23T20:53:56.141Z,12.20
2018-04-23T20:56:24.213Z,12.20
2018-04-23T20:58:51.930Z,12.20
2018-04-23T21:01:19.831Z,12.20
2018-04-23T21:03:48.294Z,12.30
2018-04-23T21:06:15.883Z,12.30
2018-04-23T21:08:43.460Z,12.20
2018-04-23T21:11:11.097Z,12.10
2018-04-23T21:13:39.334Z,12.00
2018-04-23T21:16:07.046Z,12.00
2018-04-23T21:18:34.518Z,12.00
2018-04-23T21:21:02.357Z,11.90
2018-04-23T21:23:30.909Z,11.90
2018-04-23T21:25:58.439Z,11.80
2018-04-23T21:28:26.051Z,11.80
2018-04-23T21:30:53.517Z,11.70
2018-04-23T21:33:21.785Z,11.70
2018-04-23T21:35:49.249Z,11.60
2018-04-23T21:38:17.488Z,11.50
2018-04-23T21:40:44.992Z,11.50
2018-04-23T21:43:13.262Z,11.50
2018-04-23T21:45:41.514Z,11.50
2018-04-23T21:48:09.098Z,11.50
2018-04-23T21:50:37.483Z,11.40
2018-04-23T21:53:05.757Z,11.30
2018-04-23T21:55:33.261Z,11.30
2018-04-23T21:58:00.757Z,11.20
2018-04-23T22:00:28.302Z,11.10
2018-04-23T22:02:55.770Z,11.10
2018-04-23T22:05:23.355Z,11.10
2018-04-23T22:07:50.794Z,11.10
2018-04-23T22:10:18.316Z,11.10
2018-04-23T22:12:45.781Z,11.10
2018-04-23T22:15:13.262Z,11.00
2018-04-23T22:17:40.783Z,11.00
2018-04-23T22:20:08.270Z,11.10
2018-04-23T22:22:35.784Z,11.00
2018-04-23T22:25:03.277Z,11.10
2018-04-23T22:27:30.775Z,11.00
2018-04-23T22:29:58.311Z,11.00
2018-04-23T22:32:25.804Z,11.00
2018-04-23T22:34:53.298Z,11.00
2018-04-23T22:37:20.770Z,10.90
2018-04-23T22:39:48.259Z,10.90
2018-04-23T22:42:15.757Z,10.90
2018-04-23T22:44:43.998Z,10.90
2018-04-23T22:47:11.493Z,10.90
2018-04-23T22:49:39.717Z,10.80
2018-04-23T22:52:07.276Z,10.70
2018-04-23T22:54:34.737Z,10.80
2018-04-23T22:57:02.211Z,10.70
2018-04-23T22:59:29.701Z,10.60
2018-04-23T23:01:58.013Z,10.60
2018-04-23T23:04:25.503Z,10.60
2018-04-23T23:06:52.956Z,10.50
2018-04-23T23:09:20.460Z,10.50
2018-04-23T23:11:48.687Z,10.30
2018-04-23T23:14:16.187Z,10.30
2018-04-23T23:16:44.432Z,10.30
2018-04-23T23:19:11.906Z,10.30
2018-04-23T23:21:40.154Z,10.30
2018-04-23T23:24:07.633Z,10.30
2018-04-23T23:26:35.134Z,10.30
2018-04-23T23:29:02.616Z,10.30
2018-04-23T23:31:30.075Z,10.20
2018-04-23T23:33:57.553Z,10.20
2018-04-23T23:36:25.018Z,10.10
2018-04-23T23:38:52.511Z,10.10
2018-04-23T23:41:20.751Z,10.10
2018-04-23T23:43:48.229Z,10.10
2018-04-23T23:46:15.745Z,10.10
2018-04-23T23:48:43.213Z,10.00
2018-04-23T23:51:10.677Z,9.90
2018-04-23T23:53:38.171Z,9.80
2018-04-23T23:56:05.670Z,9.80
2018-04-23T23:58:33.125Z,9.80
